Time;durP1;ratioP1;P1;durP2;ratioP2;P2;SDS_P1;SDS_P2;PMS_P1;PMS_P2;Temp;Humidity;BMP_temperature;BMP_pressure;BME280_temperature;BME280_humidity;BME280_pressure;Samples;Min_cycle;Max_cycle;Signal;HPM_P1;HPM_P2
2022/06/09 00:01:23;;;;;;;1.70;1.60;;;20.80;99.90;;;;;;5028336;28;20207;-71
2022/06/09 00:03:57;;;;;;;3.07;2.00;;;20.80;99.90;;;;;;5028684;28;20209;-71
2022/06/09 00:06:33;;;;;;;2.17;1.70;;;20.80;99.90;;;;;;5028574;28;20200;-71
2022/06/09 00:09:02;;;;;;;2.10;2.00;;;20.90;99.90;;;;;;5028013;28;20572;-72
2022/06/09 00:11:30;;;;;;;2.10;2.00;;;20.70;99.90;;;;;;5028541;28;20241;-71
2022/06/09 00:13:57;;;;;;;1.73;1.73;;;20.50;99.90;;;;;;5028411;28;20361;-71
2022/06/09 00:16:24;;;;;;;2.10;2.00;;;20.50;99.90;;;;;;5027876;28;20200;-72
2022/06/09 00:18:51;;;;;;;3.73;1.90;;;20.50;99.90;;;;;;5027966;28;20581;-71
2022/06/09 00:21:23;;;;;;;1.80;1.70;;;20.50;99.90;;;;;;5028004;28;20208;-71
2022/06/09 00:23:51;;;;;;;4.75;2.08;;;20.50;99.90;;;;;;5027448;28;20778;-71
2022/06/09 00:26:21;;;;;;;1.77;1.70;;;20.50;99.90;;;;;;5028315;28;20209;-71
2022/06/09 00:28:47;;;;;;;2.10;2.00;;;20.60;99.90;;;;;;5028017;28;20271;-71
2022/06/09 00:31:23;;;;;;;1.92;1.83;;;20.60;99.90;;;;;;5027776;28;20193;-71
2022/06/09 00:33:50;;;;;;;1.80;1.70;;;20.60;99.90;;;;;;5028237;28;20284;-70
2022/06/09 00:36:20;;;;;;;2.20;2.00;;;20.70;99.90;;;;;;5028133;28;20677;-71
2022/06/09 00:38:47;;;;;;;2.10;1.45;;;20.70;99.90;;;;;;5027790;28;20695;-71
2022/06/09 00:41:40;;;;;;;4.00;1.90;;;20.70;99.90;;;;;;5028002;28;20239;-71
2022/06/09 00:44:18;;;;;;;1.90;1.80;;;20.70;99.90;;;;;;5028157;28;20197;-71
2022/06/09 00:46:48;;;;;;;3.87;1.77;;;20.70;99.90;;;;;;5028500;28;20196;-71
2022/06/09 00:49:19;;;;;;;2.30;2.10;;;20.70;99.90;;;;;;5027844;28;20263;-71
2022/06/09 00:51:50;;;;;;;1.80;1.70;;;20.50;99.90;;;;;;5028224;28;20232;-71
2022/06/09 00:54:23;;;;;;;1.90;1.80;;;20.40;99.90;;;;;;5027772;28;20209;-71
2022/06/09 00:56:56;;;;;;;2.33;2.23;;;20.30;99.90;;;;;;5027630;28;20279;-71
2022/06/09 00:59:26;;;;;;;3.13;1.63;;;20.30;99.90;;;;;;5027762;28;20203;-72
2022/06/09 01:01:53;;;;;;;2.20;2.00;;;20.20;99.90;;;;;;5027850;28;20199;-72
2022/06/09 01:04:22;;;;;;;2.20;2.00;;;20.20;99.90;;;;;;5027668;28;20208;-71
2022/06/09 01:06:53;;;;;;;2.03;1.83;;;20.30;99.90;;;;;;5027870;28;20288;-72
2022/06/09 01:09:25;;;;;;;2.00;1.90;;;20.20;99.90;;;;;;5027636;28;20208;-72
2022/06/09 01:11:55;;;;;;;2.83;2.03;;;20.20;99.90;;;;;;5027738;28;20196;-72
2022/06/09 01:14:25;;;;;;;2.70;2.30;;;20.10;99.90;;;;;;5035131;28;20200;-73
2022/06/09 01:17:03;;;;;;;2.80;2.00;;;20.10;99.90;;;;;;5038388;28;20209;-71
2022/06/09 01:20:00;;;;;;;2.27;2.10;;;20.10;99.90;;;;;;5027546;28;20213;-71
2022/06/09 01:23:05;;;;;;;2.03;1.80;;;20.10;99.90;;;;;;5027854;28;20307;-71
2022/06/09 01:26:02;;;;;;;2.00;1.90;;;20.20;99.90;;;;;;5027533;28;20208;-71
2022/06/09 01:28:50;;;;;;;3.60;2.00;;;20.20;99.90;;;;;;5014144;28;20253;-71
2022/06/09 01:31:30;;;;;;;2.03;1.90;;;20.30;99.90;;;;;;5007802;28;20225;-71
2022/06/09 01:34:05;;;;;;;1.87;1.77;;;20.30;99.90;;;;;;5007756;28;20626;-71
2022/06/09 01:36:41;;;;;;;2.30;2.20;;;20.30;99.90;;;;;;5007747;28;20189;-71
2022/06/09 01:39:08;;;;;;;2.10;2.00;;;20.30;99.90;;;;;;5023050;28;20197;-72
2022/06/09 01:41:35;;;;;;;1.80;1.80;;;20.20;99.90;;;;;;5027248;28;20215;-72
2022/06/09 01:44:04;;;;;;;2.00;1.90;;;20.20;99.90;;;;;;5029968;28;20215;-70
2022/06/09 01:46:34;;;;;;;1.80;1.70;;;20.20;99.90;;;;;;5030436;28;20570;-70
2022/06/09 01:49:05;;;;;;;2.37;2.17;;;20.10;99.90;;;;;;5030660;28;20220;-70
2022/06/09 01:51:36;;;;;;;1.90;1.80;;;20.20;99.90;;;;;;5031185;28;20192;-70
2022/06/09 01:54:06;;;;;;;2.20;2.00;;;20.10;99.90;;;;;;5030880;28;20193;-70
2022/06/09 01:56:39;;;;;;;2.43;1.90;;;20.10;99.90;;;;;;5031014;28;20209;-70
2022/06/09 01:59:09;;;;;;;2.37;1.80;;;20.10;99.90;;;;;;5012530;28;20267;-72
2022/06/09 02:01:41;;;;;;;2.30;1.70;;;20.10;99.90;;;;;;5030118;28;20231;-72
2022/06/09 02:04:15;;;;;;;2.27;2.17;;;20.10;99.90;;;;;;5030864;28;20204;-72
2022/06/09 02:06:44;;;;;;;1.80;1.70;;;20.10;99.90;;;;;;5030829;28;20210;-72
2022/06/09 02:09:11;;;;;;;2.67;1.90;;;20.10;99.90;;;;;;5030210;28;20241;-73
2022/06/09 02:11:47;;;;;;;1.93;1.63;;;20.10;99.90;;;;;;5030627;28;20212;-73
2022/06/09 02:14:15;;;;;;;1.90;1.80;;;20.10;99.90;;;;;;5030128;28;20205;-74
2022/06/09 02:16:43;;;;;;;2.20;2.00;;;20.00;99.90;;;;;;5030362;28;20300;-74
2022/06/09 02:19:10;;;;;;;1.97;1.87;;;19.90;99.90;;;;;;5030404;28;20267;-73
2022/06/09 02:21:38;;;;;;;3.13;2.00;;;19.90;99.90;;;;;;5030126;28;20229;-73
2022/06/09 02:24:05;;;;;;;2.03;1.93;;;19.80;99.90;;;;;;5029726;28;20596;-73
2022/06/09 02:26:32;;;;;;;2.23;1.87;;;19.80;99.90;;;;;;5030396;28;20651;-73
2022/06/09 02:28:59;;;;;;;1.90;1.80;;;19.70;99.90;;;;;;5029886;28;20245;-72
2022/06/09 02:31:32;;;;;;;1.73;1.63;;;19.70;99.90;;;;;;5030436;28;20209;-72
2022/06/09 02:34:01;;;;;;;3.07;2.20;;;19.60;99.90;;;;;;5030344;28;20203;-72
2022/06/09 02:36:28;;;;;;;1.80;1.70;;;19.50;99.90;;;;;;5030138;28;20663;-72
2022/06/09 02:38:54;;;;;;;1.90;1.80;;;19.40;99.90;;;;;;5030078;28;20728;-73
2022/06/09 02:41:24;;;;;;;1.80;1.70;;;19.30;99.90;;;;;;5029709;28;20683;-72
2022/06/09 02:43:52;;;;;;;1.87;1.77;;;19.30;99.90;;;;;;5010258;28;20216;-72
2022/06/09 02:46:20;;;;;;;2.50;2.03;;;19.30;99.90;;;;;;5010271;28;20574;-72
2022/06/09 02:48:47;;;;;;;1.83;1.73;;;19.30;99.90;;;;;;5010384;28;20240;-72
2022/06/09 02:51:27;;;;;;;1.90;1.80;;;19.40;99.90;;;;;;5010173;28;20229;-72
2022/06/09 02:53:54;;;;;;;2.33;1.80;;;19.40;99.90;;;;;;5028428;28;20651;-72
2022/06/09 02:56:27;;;;;;;2.10;2.00;;;19.30;99.90;;;;;;5029825;28;20565;-70
2022/06/09 02:58:56;;;;;;;2.10;2.00;;;19.10;99.90;;;;;;5029830;28;20294;-71
2022/06/09 03:01:27;;;;;;;2.60;1.97;;;19.10;99.90;;;;;;5029844;28;20212;-71
2022/06/09 03:03:54;;;;;;;2.10;2.00;;;19.00;99.90;;;;;;5029546;28;20248;-71
2022/06/09 03:06:31;;;;;;;2.50;1.87;;;19.00;99.90;;;;;;5029341;28;20209;-72
2022/06/09 03:08:59;;;;;;;3.77;2.23;;;19.00;99.90;;;;;;5029362;28;20221;-71
2022/06/09 03:11:27;;;;;;;2.20;2.10;;;19.10;99.90;;;;;;5029641;28;20209;-71
2022/06/09 03:13:54;;;;;;;1.80;1.70;;;19.10;99.90;;;;;;5029540;28;20205;-72
2022/06/09 03:16:24;;;;;;;4.83;1.90;;;19.20;99.90;;;;;;5027416;28;20236;-73
2022/06/09 03:18:50;;;;;;;3.10;2.20;;;19.20;99.90;;;;;;5026758;28;20248;-73
2022/06/09 03:21:31;;;;;;;2.10;2.00;;;19.20;99.90;;;;;;5026650;28;20693;-72
2022/06/09 03:23:58;;;;;;;2.10;2.00;;;19.20;99.90;;;;;;5026563;28;20232;-73
2022/06/09 03:26:31;;;;;;;2.10;1.80;;;19.10;99.90;;;;;;5026613;28;20731;-73
2022/06/09 03:28:57;;;;;;;2.00;1.90;;;19.20;99.90;;;;;;5026308;28;20259;-73
2022/06/09 03:31:30;;;;;;;3.03;1.70;;;19.20;99.90;;;;;;5026438;28;20219;-72
2022/06/09 03:33:58;;;;;;;3.33;2.17;;;19.10;99.90;;;;;;5026773;28;20207;-71
2022/06/09 03:36:25;;;;;;;2.93;1.70;;;19.00;99.90;;;;;;5027407;28;20207;-71
2022/06/09 03:38:53;;;;;;;4.20;1.90;;;19.00;99.90;;;;;;5027174;28;20208;-72
2022/06/09 03:41:32;;;;;;;1.63;1.53;;;19.00;99.90;;;;;;5026754;28;20232;-72
2022/06/09 03:43:59;;;;;;;3.70;2.10;;;19.00;99.90;;;;;;5026310;28;20748;-70
2022/06/09 03:46:34;;;;;;;3.03;1.97;;;18.90;99.90;;;;;;5026757;28;20212;-71
2022/06/09 03:49:02;;;;;;;3.13;1.90;;;19.00;99.90;;;;;;5026647;28;20231;-71
2022/06/09 03:51:31;;;;;;;1.93;1.80;;;19.00;99.90;;;;;;5027029;28;20205;-71
2022/06/09 03:54:00;;;;;;;1.70;1.60;;;19.00;99.90;;;;;;5026642;28;20247;-71
2022/06/09 03:56:30;;;;;;;1.90;1.80;;;19.00;99.90;;;;;;5027079;28;20208;-71
2022/06/09 03:58:57;;;;;;;3.07;1.90;;;19.00;99.90;;;;;;5027077;28;20208;-71
2022/06/09 04:01:48;;;;;;;2.73;1.60;;;19.00;99.90;;;;;;5026646;28;20215;-70
2022/06/09 04:04:15;;;;;;;1.90;1.80;;;19.00;99.90;;;;;;5014199;28;20220;-70
2022/06/09 04:06:43;;;;;;;1.90;1.80;;;19.10;99.90;;;;;;5016019;28;20215;-71
2022/06/09 04:09:11;;;;;;;2.80;2.13;;;19.10;99.90;;;;;;5022492;28;20228;-71
2022/06/09 04:11:38;;;;;;;2.97;1.80;;;19.00;99.90;;;;;;5023301;28;20301;-71
2022/06/09 04:14:05;;;;;;;3.53;1.77;;;19.00;99.90;;;;;;5024914;28;20209;-70
2022/06/09 04:16:36;;;;;;;1.83;1.73;;;19.00;99.90;;;;;;5025547;28;20560;-70
2022/06/09 04:19:07;;;;;;;1.60;1.50;;;18.80;99.90;;;;;;5026126;28;20587;-70
2022/06/09 04:21:35;;;;;;;1.70;1.60;;;18.80;99.90;;;;;;5023027;28;20229;-71
2022/06/09 04:24:02;;;;;;;1.80;1.53;;;18.70;99.90;;;;;;5021430;28;20662;-71
2022/06/09 04:26:36;;;;;;;3.57;1.63;;;18.50;99.90;;;;;;5014730;28;20742;-70
2022/06/09 04:29:04;;;;;;;2.70;1.70;;;18.70;99.90;;;;;;5014426;28;20278;-71
2022/06/09 04:31:31;;;;;;;1.77;1.67;;;18.60;99.90;;;;;;5014895;28;20211;-70
2022/06/09 04:33:58;;;;;;;1.87;1.60;;;18.60;99.90;;;;;;5021208;28;20204;-70
2022/06/09 04:36:25;;;;;;;2.10;2.00;;;18.60;99.90;;;;;;5022738;28;20209;-70
2022/06/09 04:38:51;;;;;;;1.80;1.70;;;18.70;99.90;;;;;;5024307;28;21003;-70
2022/06/09 04:41:32;;;;;;;1.93;1.77;;;18.60;99.90;;;;;;5018750;28;20296;-71
2022/06/09 04:43:59;;;;;;;2.03;1.77;;;18.70;99.90;;;;;;5021979;28;20210;-71
2022/06/09 04:46:26;;;;;;;4.17;2.00;;;18.60;99.90;;;;;;5023286;28;20205;-71
2022/06/09 04:48:53;;;;;;;1.50;1.40;;;18.60;99.90;;;;;;5023263;28;20237;-71
2022/06/09 04:51:21;;;;;;;1.73;1.63;;;18.60;99.90;;;;;;5017082;28;20220;-71
2022/06/09 04:53:49;;;;;;;1.40;1.30;;;18.60;99.90;;;;;;5018888;28;20209;-71
2022/06/09 04:56:23;;;;;;;1.60;1.50;;;18.70;99.90;;;;;;5021899;28;20758;-71
2022/06/09 04:58:51;;;;;;;1.43;1.10;;;18.80;99.90;;;;;;5024491;28;20224;-71
2022/06/09 05:01:36;;;;;;;1.50;1.40;;;18.80;99.90;;;;;;5021192;28;20319;-71
2022/06/09 05:04:04;;;;;;;3.87;1.47;;;18.80;99.90;;;;;;5017891;28;20270;-71
2022/06/09 05:06:31;;;;;;;1.27;1.17;;;18.80;99.90;;;;;;5018983;28;20220;-71
2022/06/09 05:08:58;;;;;;;1.40;1.30;;;18.80;99.90;;;;;;5019141;28;20278;-70
2022/06/09 05:11:26;;;;;;;1.30;1.20;;;18.70;99.90;;;;;;5010269;28;20197;-71
2022/06/09 05:13:54;;;;;;;3.03;1.53;;;18.70;99.90;;;;;;5020164;28;20987;-74
2022/06/09 05:16:30;;;;;;;2.17;1.40;;;18.70;99.90;;;;;;5019120;28;20215;-70
2022/06/09 05:18:57;;;;;;;2.33;1.67;;;18.60;99.90;;;;;;5020359;28;20204;-70
2022/06/09 05:21:27;;;;;;;1.37;1.23;;;18.60;99.90;;;;;;5026008;28;20220;-72
2022/06/09 05:23:54;;;;;;;1.20;1.10;;;18.60;99.90;;;;;;5021367;28;20263;-71
2022/06/09 05:26:27;;;;;;;1.30;1.20;;;18.60;99.90;;;;;;5022711;28;20204;-72
2022/06/09 05:28:55;;;;;;;1.30;1.20;;;18.70;99.90;;;;;;5018202;28;20253;-71
2022/06/09 05:31:31;;;;;;;1.47;1.10;;;18.70;99.90;;;;;;5019154;28;20742;-72
2022/06/09 05:33:58;;;;;;;1.30;1.20;;;18.80;99.90;;;;;;5019117;28;20564;-71
2022/06/09 05:36:25;;;;;;;1.80;1.43;;;18.90;99.90;;;;;;5019590;28;20207;-72
2022/06/09 05:47:19;;;;;;;1.20;1.10;;;19.00;99.90;;;;;;5019831;28;20752;-71
2022/06/09 05:49:47;;;;;;;1.57;1.47;;;19.00;99.90;;;;;;5020372;28;20247;-72
2022/06/09 05:52:14;;;;;;;3.10;1.20;;;18.80;99.90;;;;;;5018993;28;20201;-72
2022/06/09 05:54:41;;;;;;;1.23;1.00;;;18.80;99.90;;;;;;5024698;28;20205;-72
2022/06/09 05:57:08;;;;;;;2.50;1.13;;;18.80;99.90;;;;;;5024873;28;20198;-72
2022/06/09 05:59:36;;;;;;;2.13;1.33;;;18.70;99.90;;;;;;5026808;28;20692;-72
2022/06/09 06:02:03;;;;;;;1.70;1.37;;;18.70;99.90;;;;;;5020318;28;20295;-72
2022/06/09 06:04:30;;;;;;;2.57;1.57;;;18.70;99.90;;;;;;5015998;28;20233;-72
2022/06/09 06:06:57;;;;;;;1.77;1.47;;;18.50;99.90;;;;;;5016247;28;20690;-72
2022/06/09 06:09:23;;;;;;;2.00;1.57;;;18.50;99.90;;;;;;5020878;28;20232;-72
2022/06/09 06:11:51;;;;;;;2.07;1.40;;;18.50;99.90;;;;;;5017897;28;20209;-72
2022/06/09 06:14:19;;;;;;;2.20;1.37;;;18.50;99.90;;;;;;5020890;28;20259;-72
2022/06/09 06:16:48;;;;;;;1.83;1.70;;;18.50;99.90;;;;;;5025915;28;20217;-71
2022/06/09 06:19:17;;;;;;;2.70;1.63;;;18.40;99.90;;;;;;5020810;28;20304;-71
2022/06/09 06:21:45;;;;;;;2.87;1.50;;;18.40;99.90;;;;;;5021376;28;20231;-71
2022/06/09 06:24:13;;;;;;;2.17;1.60;;;18.40;99.90;;;;;;5017487;28;20312;-71
2022/06/09 06:26:40;;;;;;;3.03;1.57;;;18.40;99.90;;;;;;5013809;28;20226;-72
2022/06/09 06:29:12;;;;;;;4.20;1.47;;;18.30;99.90;;;;;;5015158;28;20237;-72
2022/06/09 06:31:38;;;;;;;2.57;1.70;;;18.30;99.90;;;;;;5021522;28;20212;-72
2022/06/09 06:34:07;;;;;;;3.10;2.00;;;18.30;99.90;;;;;;5018306;28;20206;-71
2022/06/09 06:36:36;;;;;;;3.80;1.37;;;18.40;99.90;;;;;;5024490;28;20641;-72
2022/06/09 06:39:04;;;;;;;5.13;1.70;;;18.40;99.90;;;;;;5008212;28;20213;-72
2022/06/09 06:41:31;;;;;;;3.10;1.70;;;18.50;99.90;;;;;;5027523;28;20205;-72
2022/06/09 06:43:59;;;;;;;3.73;1.73;;;18.50;99.90;;;;;;5028224;28;20251;-72
2022/06/09 06:46:28;;;;;;;4.27;1.70;;;18.50;99.90;;;;;;5027442;28;20212;-72
2022/06/09 06:48:55;;;;;;;3.77;1.77;;;18.60;99.90;;;;;;5027424;28;20717;-72
2022/06/09 06:51:24;;;;;;;2.93;1.30;;;18.50;99.90;;;;;;5026955;28;20208;-72
2022/06/09 06:53:51;;;;;;;1.50;1.40;;;18.50;99.90;;;;;;5024475;28;20211;-72
2022/06/09 06:56:21;;;;;;;2.43;1.70;;;18.50;99.90;;;;;;5023160;28;20216;-72
2022/06/09 06:58:48;;;;;;;1.37;1.27;;;18.50;99.90;;;;;;5023212;28;20212;-72
2022/06/09 07:02:08;;;;;;;4.47;1.60;;;18.50;99.90;;;;;;5021069;28;20211;-72
2022/06/09 07:04:35;;;;;;;5.83;1.70;;;18.50;99.90;;;;;;5016249;28;20228;-71
2022/06/09 07:07:04;;;;;;;3.00;1.70;;;18.40;99.90;;;;;;5025968;28;20596;-71
2022/06/09 07:09:31;;;;;;;89.50;9.20;;;18.30;99.90;;;;;;5025423;28;20242;-71
2022/06/09 07:12:01;;;;;;;1.43;1.33;;;18.30;99.90;;;;;;5026491;28;20222;-71
2022/06/09 07:14:28;;;;;;;3.83;1.60;;;18.20;99.90;;;;;;5027592;28;20219;-71
2022/06/09 07:16:55;;;;;;;1.63;1.53;;;18.20;99.90;;;;;;5027760;28;20209;-71
2022/06/09 07:19:22;;;;;;;1.57;1.50;;;18.20;99.90;;;;;;5028259;28;20727;-72
2022/06/09 07:21:48;;;;;;;2.17;1.37;;;18.30;99.90;;;;;;5020375;28;20232;-72
2022/06/09 07:24:17;;;;;;;1.90;1.80;;;18.30;99.90;;;;;;5019467;28;20219;-71
2022/06/09 07:26:44;;;;;;;2.47;1.70;;;18.30;99.90;;;;;;5016314;28;20291;-72
2022/06/09 07:29:10;;;;;;;1.60;1.50;;;18.30;99.90;;;;;;5018376;28;20243;-72
2022/06/09 07:31:37;;;;;;;1.67;1.43;;;18.30;99.90;;;;;;5021917;28;20201;-71
2022/06/09 07:34:04;;;;;;;2.70;1.60;;;18.30;99.90;;;;;;5027396;28;20655;-71
2022/06/09 07:36:31;;;;;;;1.83;1.70;;;18.30;99.90;;;;;;5028590;28;20204;-71
2022/06/09 07:38:58;;;;;;;4.17;1.50;;;18.20;99.90;;;;;;5028089;28;20220;-72
2022/06/09 07:41:32;;;;;;;6.13;1.63;;;18.20;99.90;;;;;;5027497;28;20667;-71
2022/06/09 07:44:00;;;;;;;1.70;1.60;;;18.30;99.90;;;;;;5028654;28;20215;-71
2022/06/09 07:46:27;;;;;;;5.30;1.77;;;18.30;99.90;;;;;;5028381;28;20219;-71
2022/06/09 07:48:54;;;;;;;3.50;1.90;;;18.40;99.90;;;;;;5026352;28;20215;-71
2022/06/09 07:51:31;;;;;;;2.03;1.70;;;18.40;99.90;;;;;;5028338;28;20223;-71
2022/06/09 07:53:58;;;;;;;2.10;1.67;;;18.50;99.90;;;;;;5016704;28;20212;-71
2022/06/09 07:56:32;;;;;;;2.73;1.70;;;18.40;99.90;;;;;;5027526;28;20296;-71
2022/06/09 07:59:01;;;;;;;1.90;1.80;;;18.50;99.90;;;;;;5028355;28;20240;-71
2022/06/09 08:01:31;;;;;;;2.70;1.67;;;18.50;99.90;;;;;;5023271;28;20201;-71
2022/06/09 08:03:58;;;;;;;2.60;2.40;;;18.40;99.90;;;;;;5019038;28;20207;-71
2022/06/09 08:06:31;;;;;;;2.20;2.00;;;18.40;99.90;;;;;;5021745;28;20303;-71
2022/06/09 08:09:00;;;;;;;2.60;2.00;;;18.50;99.90;;;;;;5021351;28;20782;-71
2022/06/09 08:11:30;;;;;;;2.20;1.90;;;18.60;99.90;;;;;;5018563;28;20215;-71
2022/06/09 08:13:58;;;;;;;1.90;1.80;;;18.60;99.90;;;;;;5021547;28;20565;-71
2022/06/09 08:16:31;;;;;;;2.47;1.83;;;18.60;99.90;;;;;;5016196;28;20198;-71
2022/06/09 08:18:58;;;;;;;2.93;2.03;;;18.60;99.90;;;;;;5016112;28;20363;-71
2022/06/09 08:21:30;;;;;;;2.40;1.90;;;18.60;99.90;;;;;;5021711;28;20224;-71
2022/06/09 08:23:57;;;;;;;2.20;2.00;;;18.60;99.90;;;;;;5027635;28;20240;-71
2022/06/09 08:26:29;;;;;;;2.97;2.00;;;18.70;99.90;;;;;;5028219;28;20213;-71
2022/06/09 08:28:56;;;;;;;2.00;1.90;;;18.70;99.90;;;;;;5024604;28;20284;-71
2022/06/09 08:31:23;;;;;;;2.47;1.90;;;18.60;99.90;;;;;;5027424;28;20303;-71
2022/06/09 08:33:51;;;;;;;2.67;1.97;;;18.70;99.90;;;;;;5027414;28;20648;-71
2022/06/09 08:36:40;;;;;;;2.60;1.90;;;18.70;99.90;;;;;;5027656;28;20209;-70
2022/06/09 08:39:07;;;;;;;2.10;1.90;;;18.60;99.90;;;;;;5023955;28;20421;-71
2022/06/09 08:41:43;;;;;;;1.87;1.77;;;18.60;99.90;;;;;;5028493;28;20640;-71
2022/06/09 08:44:16;;;;;;;1.80;1.70;;;18.60;99.90;;;;;;5021517;28;20773;-72
2022/06/09 08:46:49;;;;;;;2.00;1.63;;;18.70;99.90;;;;;;5026038;28;20575;-72
2022/06/09 08:49:30;;;;;;;2.77;2.00;;;18.80;99.90;;;;;;5025668;28;20274;-72
2022/06/09 08:52:02;;;;;;;2.97;1.60;;;18.80;99.90;;;;;;5027374;28;20200;-72
2022/06/09 08:54:33;;;;;;;3.40;1.80;;;19.00;99.90;;;;;;5031250;28;20646;-72
2022/06/09 08:57:05;;;;;;;3.73;2.10;;;19.00;99.90;;;;;;5031738;28;20196;-72
2022/06/09 08:59:37;;;;;;;2.03;1.80;;;19.00;99.90;;;;;;5030872;28;20216;-72
2022/06/09 09:02:16;;;;;;;1.80;1.70;;;19.10;99.90;;;;;;5031547;28;20224;-71
2022/06/09 09:04:47;;;;;;;2.53;2.10;;;19.10;99.90;;;;;;5031099;28;20212;-71
2022/06/09 09:07:20;;;;;;;2.00;1.90;;;19.00;99.90;;;;;;5027944;28;20203;-72
2022/06/09 09:09:48;;;;;;;3.50;2.03;;;19.10;99.90;;;;;;5025361;28;20274;-72
2022/06/09 09:12:19;;;;;;;2.03;1.83;;;19.10;99.90;;;;;;5028255;28;20204;-72
2022/06/09 09:14:52;;;;;;;3.53;2.00;;;19.10;99.90;;;;;;5024511;28;20212;-72
2022/06/09 09:17:29;;;;;;;3.63;2.07;;;19.20;99.90;;;;;;5025303;28;20661;-71
2022/06/09 09:20:04;;;;;;;2.00;1.83;;;19.30;99.90;;;;;;5025300;28;20205;-72
2022/06/09 09:22:37;;;;;;;2.73;1.80;;;19.40;99.90;;;;;;5018953;28;20220;-71
2022/06/09 09:25:18;;;;;;;6.43;2.17;;;19.30;99.90;;;;;;5021520;28;20308;-71
2022/06/09 09:27:50;;;;;;;1.83;1.73;;;19.30;99.90;;;;;;5023497;28;20240;-71
2022/06/09 09:30:21;;;;;;;2.20;2.10;;;19.30;99.90;;;;;;5023307;28;20253;-73
2022/06/09 09:32:50;;;;;;;2.13;1.93;;;19.30;99.90;;;;;;5022102;28;20697;-73
2022/06/09 09:35:22;;;;;;;1.87;1.77;;;19.30;99.90;;;;;;5024385;28;20295;-72
2022/06/09 09:37:52;;;;;;;2.00;1.63;;;19.50;99.90;;;;;;5018822;28;20193;-72
2022/06/09 09:40:24;;;;;;;2.17;1.80;;;19.50;99.90;;;;;;5024511;28;20296;-72
2022/06/09 09:42:54;;;;;;;3.03;2.70;;;19.50;99.90;;;;;;5021578;28;20200;-72
2022/06/09 09:45:23;;;;;;;3.27;1.70;;;19.70;99.90;;;;;;5021778;28;20760;-72
2022/06/09 09:47:54;;;;;;;3.47;2.30;;;19.70;99.90;;;;;;5022196;28;20219;-72
2022/06/09 09:50:29;;;;;;;2.53;2.30;;;19.70;99.90;;;;;;5020567;28;20308;-72
2022/06/09 09:53:00;;;;;;;3.17;2.40;;;19.80;99.90;;;;;;5025014;28;20196;-72
2022/06/09 09:55:34;;;;;;;5.23;2.30;;;19.90;99.90;;;;;;5022777;28;20694;-72
2022/06/09 09:58:19;;;;;;;3.63;2.33;;;19.90;99.90;;;;;;5018692;28;20688;-72
2022/06/09 10:00:50;;;;;;;3.27;2.23;;;19.80;99.90;;;;;;5018893;28;20199;-72
2022/06/09 10:09:05;;;;;;;4.00;2.47;;;20.10;99.90;;;;;;5017525;28;20219;-73
2022/06/09 10:11:56;;;;;;;3.77;2.40;;;20.20;99.90;;;;;;5017747;28;20227;-73
2022/06/09 10:14:51;;;;;;;2.67;2.47;;;20.20;99.90;;;;;;5013426;28;20197;-73
2022/06/09 10:17:29;;;;;;;2.80;2.60;;;20.20;99.90;;;;;;5016224;28;20212;-73
2022/06/09 10:20:04;;;;;;;2.60;2.40;;;20.20;99.90;;;;;;5027009;28;20247;-73
2022/06/09 10:22:36;;;;;;;2.20;1.77;;;20.20;99.90;;;;;;5027573;28;20252;-73
2022/06/09 10:25:19;;;;;;;3.73;2.60;;;20.40;99.90;;;;;;5027609;28;20303;-73
2022/06/09 10:27:49;;;;;;;2.60;2.33;;;20.40;99.90;;;;;;5027383;28;20606;-73
2022/06/09 10:30:23;;;;;;;2.90;2.20;;;20.60;99.90;;;;;;5027541;28;20225;-73
2022/06/09 10:32:57;;;;;;;2.40;2.20;;;20.70;99.90;;;;;;5027671;28;20200;-74
2022/06/09 10:35:31;;;;;;;5.00;2.73;;;20.80;99.90;;;;;;5026910;28;20207;-73
2022/06/09 10:38:05;;;;;;;4.60;2.80;;;20.70;99.90;;;;;;5024271;28;20206;-73
2022/06/09 10:40:38;;;;;;;4.40;2.70;;;20.80;99.90;;;;;;5024471;28;20200;-73
2022/06/09 10:43:17;;;;;;;3.13;2.83;;;20.80;99.90;;;;;;5018586;28;20255;-73
2022/06/09 10:45:50;;;;;;;3.00;2.80;;;20.80;99.90;;;;;;5017915;28;20237;-73
2022/06/09 10:57:17;;;;;;;4.83;3.27;;;20.70;99.90;;;;;;5013958;28;20766;-73
2022/06/09 10:59:51;;;;;;;3.53;2.87;;;20.70;99.90;;;;;;5026844;28;20212;-73
2022/06/09 11:02:21;;;;;;;4.07;2.83;;;20.60;99.90;;;;;;5021437;28;20205;-72
2022/06/09 11:04:50;;;;;;;4.00;2.60;;;20.60;99.90;;;;;;5026805;28;20634;-73
2022/06/09 11:07:51;;;;;;;3.87;2.70;;;20.60;99.90;;;;;;5019458;28;20197;-72
2022/06/09 11:10:28;;;;;;;6.27;2.77;;;20.70;99.90;;;;;;5019430;28;20228;-72
2022/06/09 11:13:21;;;;;;;4.47;2.40;;;20.80;99.90;;;;;;5011550;28;20202;-72
2022/06/09 11:15:54;;;;;;;6.83;2.50;;;20.90;99.90;;;;;;5020616;28;20209;-73
2022/06/09 11:18:31;;;;;;;3.20;2.87;;;21.00;99.90;;;;;;5018024;28;20197;-72
2022/06/09 11:21:22;;;;;;;4.93;2.90;;;21.10;99.90;;;;;;5022948;28;20607;-71
2022/06/09 11:24:03;;;;;;;2.90;2.70;;;21.20;99.90;;;;;;5021063;28;20659;-72
2022/06/09 11:26:41;;;;;;;4.17;2.90;;;21.20;99.90;;;;;;5021242;28;20659;-72
2022/06/09 11:29:23;;;;;;;3.03;2.83;;;21.30;99.90;;;;;;5013459;28;20244;-72
2022/06/09 11:32:03;;;;;;;6.10;3.27;;;21.40;99.90;;;;;;5021913;28;20567;-71
2022/06/09 11:34:55;;;;;;;4.50;3.07;;;21.40;99.90;;;;;;5012258;28;20211;-73
2022/06/09 11:37:47;;;;;;;3.03;2.73;;;21.40;99.90;;;;;;5011415;28;20209;-72
2022/06/09 11:40:23;;;;;;;4.93;2.70;;;21.50;99.90;;;;;;5011856;28;20300;-73
2022/06/09 11:43:11;;;;;;;3.73;3.07;;;21.60;99.90;;;;;;5020962;28;20223;-73
2022/06/09 11:45:45;;;;;;;3.53;2.65;;;21.80;99.90;;;;;;5022586;28;20237;-72
2022/06/09 11:48:17;;;;;;;2.60;2.40;;;22.00;99.90;;;;;;5012621;28;20197;-72
2022/06/09 11:50:46;;;;;;;6.32;3.05;;;22.00;99.90;;;;;;5019356;28;20225;-72
2022/06/09 11:53:18;;;;;;;3.22;2.80;;;22.10;99.90;;;;;;5015950;28;20224;-72
2022/06/09 11:56:01;;;;;;;2.53;2.40;;;22.10;99.90;;;;;;5022734;28;20220;-71
2022/06/09 11:58:59;;;;;;;3.33;3.00;;;22.10;99.90;;;;;;5018567;28;20694;-71
2022/06/09 12:01:43;;;;;;;3.00;2.70;;;22.10;99.90;;;;;;4955597;28;20192;-71
2022/06/09 12:04:19;;;;;;;4.60;3.17;;;22.00;99.90;;;;;;5012176;28;20299;-71
2022/06/09 12:07:16;;;;;;;6.07;3.15;;;22.00;99.90;;;;;;5016902;28;20197;-72
2022/06/09 12:09:51;;;;;;;4.55;2.83;;;21.90;99.90;;;;;;5001434;28;20201;-73
2022/06/09 12:12:31;;;;;;;3.45;2.92;;;21.80;99.90;;;;;;5014530;28;20298;-72
2022/06/09 12:15:26;;;;;;;4.30;2.97;;;21.70;99.90;;;;;;5018111;28;20201;-71
2022/06/09 12:18:00;;;;;;;3.73;2.77;;;21.60;99.90;;;;;;5022558;28;20205;-73
2022/06/09 12:20:36;;;;;;;4.10;3.03;;;21.50;99.90;;;;;;5021717;28;20318;-71
2022/06/09 12:23:27;;;;;;;2.97;2.73;;;21.20;99.90;;;;;;5019384;28;20228;-72
2022/06/09 12:26:45;;;;;;;5.43;3.07;;;21.10;99.90;;;;;;5015916;28;20647;-72
2022/06/09 12:29:21;;;;;;;3.10;2.60;;;20.90;99.90;;;;;;4959273;28;20325;-72
2022/06/09 12:32:25;;;;;;;3.40;2.87;;;20.80;99.90;;;;;;4952018;28;20783;-72
2022/06/09 12:34:56;;;;;;;5.13;3.07;;;20.70;99.90;;;;;;4996391;28;20220;-72
2022/06/09 12:37:28;;;;;;;4.17;2.97;;;20.60;99.90;;;;;;5014510;28;20193;-71
2022/06/09 12:39:59;;;;;;;3.37;2.90;;;20.60;99.90;;;;;;5015196;28;20213;-71
2022/06/09 12:42:32;;;;;;;2.97;2.77;;;20.50;99.90;;;;;;5015940;28;20201;-72
2022/06/09 12:45:05;;;;;;;3.47;2.80;;;20.50;99.90;;;;;;5014838;28;20201;-73
2022/06/09 12:47:33;;;;;;;2.63;2.50;;;20.50;99.90;;;;;;5014448;28;20189;-72
2022/06/09 12:50:21;;;;;;;4.40;2.97;;;20.50;99.90;;;;;;5017088;28;21002;-72
2022/06/09 12:52:52;;;;;;;2.87;2.63;;;20.60;99.90;;;;;;5010553;28;20200;-72
2022/06/09 12:55:22;;;;;;;3.63;3.20;;;20.60;99.90;;;;;;5013462;28;20632;-72
2022/06/09 12:57:53;;;;;;;3.63;3.10;;;20.60;99.90;;;;;;5015145;28;20735;-72
2022/06/09 13:00:26;;;;;;;5.60;3.20;;;20.70;99.90;;;;;;5016615;28;20200;-71
2022/06/09 13:02:53;;;;;;;5.30;3.07;;;20.90;99.90;;;;;;5014332;28;20205;-72
2022/06/09 13:05:27;;;;;;;3.50;3.17;;;21.00;99.90;;;;;;5016731;28;20204;-72
2022/06/09 13:07:57;;;;;;;3.63;3.33;;;21.10;99.90;;;;;;5013416;28;20196;-72
2022/06/09 13:10:28;;;;;;;4.27;3.30;;;21.10;99.90;;;;;;5016308;28;20698;-72
2022/06/09 13:13:02;;;;;;;4.40;3.20;;;21.10;99.90;;;;;;5016959;28;20276;-72
2022/06/09 13:15:40;;;;;;;4.87;3.47;;;21.20;99.90;;;;;;5014198;28;20197;-72
2022/06/09 13:18:16;;;;;;;9.23;4.72;;;21.20;99.90;;;;;;5018166;28;20309;-72
2022/06/09 13:20:50;;;;;;;3.87;3.53;;;21.30;99.90;;;;;;5016102;28;20229;-73
2022/06/09 13:23:17;;;;;;;7.77;4.00;;;21.30;99.90;;;;;;5018905;28;20225;-73
2022/06/09 13:25:46;;;;;;;4.37;3.97;;;21.30;99.90;;;;;;5013638;28;20206;-73
2022/06/09 13:28:31;;;;;;;4.00;3.57;;;21.20;99.90;;;;;;5021853;28;20243;-73
2022/06/09 13:31:01;;;;;;;10.83;4.20;;;21.10;99.90;;;;;;5015025;28;20770;-73
2022/06/09 13:33:32;;;;;;;4.10;3.20;;;21.10;99.90;;;;;;5015970;28;20197;-72
2022/06/09 13:36:26;;;;;;;4.90;3.40;;;21.00;99.90;;;;;;5013597;28;20190;-72
2022/06/09 13:38:54;;;;;;;3.63;3.20;;;20.90;99.90;;;;;;5017828;28;20307;-72